sensor_id;sensor_type;location;lat;lon;timestamp;P1;durP1;ratioP1;P2;durP2;ratioP2
43509;SDS011;29105;57.764;40.952;2023-07-16T00:00:33;3.20;;;2.58;;
43509;SDS011;29105;57.764;40.952;2023-07-16T00:02:59;3.47;;;2.80;;
43509;SDS011;29105;57.764;40.952;2023-07-16T00:05:24;4.18;;;2.05;;
43509;SDS011;29105;57.764;40.952;2023-07-16T00:07:50;4.22;;;2.67;;
43509;SDS011;29105;57.764;40.952;2023-07-16T00:10:16;2.80;;;2.03;;
43509;SDS011;29105;57.764;40.952;2023-07-16T00:12:42;10.75;;;2.78;;
43509;SDS011;29105;57.764;40.952;2023-07-16T00:15:08;3.58;;;1.90;;
43509;SDS011;29105;57.764;40.952;2023-07-16T00:17:36;2.65;;;2.03;;
43509;SDS011;29105;57.764;40.952;2023-07-16T00:20:02;5.78;;;2.58;;
43509;SDS011;29105;57.764;40.952;2023-07-16T00:22:31;5.97;;;2.78;;
43509;SDS011;29105;57.764;40.952;2023-07-16T00:24:57;5.45;;;2.80;;
43509;SDS011;29105;57.764;40.952;2023-07-16T00:27:23;5.72;;;2.88;;
43509;SDS011;29105;57.764;40.952;2023-07-16T00:29:48;3.45;;;3.15;;
43509;SDS011;29105;57.764;40.952;2023-07-16T00:32:14;4.55;;;3.47;;
43509;SDS011;29105;57.764;40.952;2023-07-16T00:34:40;8.57;;;3.67;;
43509;SDS011;29105;57.764;40.952;2023-07-16T00:37:05;3.10;;;2.90;;
43509;SDS011;29105;57.764;40.952;2023-07-16T00:39:31;8.85;;;3.28;;
43509;SDS011;29105;57.764;40.952;2023-07-16T00:41:56;3.50;;;3.13;;
43509;SDS011;29105;57.764;40.952;2023-07-16T00:44:22;5.10;;;3.08;;
43509;SDS011;29105;57.764;40.952;2023-07-16T00:46:48;4.10;;;3.05;;
43509;SDS011;29105;57.764;40.952;2023-07-16T00:49:14;4.38;;;3.00;;
43509;SDS011;29105;57.764;40.952;2023-07-16T00:51:40;3.90;;;2.83;;
43509;SDS011;29105;57.764;40.952;2023-07-16T00:54:07;5.47;;;3.90;;
43509;SDS011;29105;57.764;40.952;2023-07-16T00:56:32;3.58;;;3.08;;
43509;SDS011;29105;57.764;40.952;2023-07-16T00:58:58;9.07;;;3.42;;
43509;SDS011;29105;57.764;40.952;2023-07-16T01:01:24;5.25;;;2.75;;
43509;SDS011;29105;57.764;40.952;2023-07-16T01:03:49;2.50;;;2.30;;
43509;SDS011;29105;57.764;40.952;2023-07-16T01:09:19;5.47;;;2.40;;
43509;SDS011;29105;57.764;40.952;2023-07-16T01:11:45;6.20;;;2.22;;
43509;SDS011;29105;57.764;40.952;2023-07-16T01:14:16;6.85;;;2.38;;
43509;SDS011;29105;57.764;40.952;2023-07-16T01:16:42;5.07;;;1.67;;
43509;SDS011;29105;57.764;40.952;2023-07-16T01:19:09;8.88;;;1.83;;
43509;SDS011;29105;57.764;40.952;2023-07-16T01:21:43;5.80;;;2.80;;
43509;SDS011;29105;57.764;40.952;2023-07-16T01:26:59;8.52;;;1.85;;
43509;SDS011;29105;57.764;40.952;2023-07-16T01:29:36;2.78;;;1.88;;
43509;SDS011;29105;57.764;40.952;2023-07-16T01:32:06;6.15;;;2.15;;
43509;SDS011;29105;57.764;40.952;2023-07-16T01:34:33;2.53;;;1.67;;
43509;SDS011;29105;57.764;40.952;2023-07-16T01:37:00;4.88;;;2.08;;
43509;SDS011;29105;57.764;40.952;2023-07-16T01:39:27;3.10;;;1.63;;
43509;SDS011;29105;57.764;40.952;2023-07-16T01:41:52;3.90;;;1.60;;
43509;SDS011;29105;57.764;40.952;2023-07-16T01:44:18;7.97;;;1.92;;
43509;SDS011;29105;57.764;40.952;2023-07-16T01:46:44;2.50;;;1.40;;
43509;SDS011;29105;57.764;40.952;2023-07-16T01:49:14;3.58;;;1.70;;
43509;SDS011;29105;57.764;40.952;2023-07-16T01:51:40;2.97;;;1.10;;
43509;SDS011;29105;57.764;40.952;2023-07-16T01:54:05;5.25;;;2.05;;
43509;SDS011;29105;57.764;40.952;2023-07-16T01:56:31;2.78;;;1.42;;
43509;SDS011;29105;57.764;40.952;2023-07-16T01:58:58;3.10;;;1.58;;
43509;SDS011;29105;57.764;40.952;2023-07-16T02:01:24;2.08;;;1.30;;
43509;SDS011;29105;57.764;40.952;2023-07-16T02:03:49;3.05;;;1.50;;
43509;SDS011;29105;57.764;40.952;2023-07-16T02:06:15;3.22;;;1.83;;
43509;SDS011;29105;57.764;40.952;2023-07-16T02:08:41;11.90;;;1.67;;
43509;SDS011;29105;57.764;40.952;2023-07-16T02:11:06;3.95;;;1.45;;
43509;SDS011;29105;57.764;40.952;2023-07-16T02:13:32;5.30;;;2.08;;
43509;SDS011;29105;57.764;40.952;2023-07-16T02:15:58;2.97;;;1.50;;
43509;SDS011;29105;57.764;40.952;2023-07-16T02:18:24;3.90;;;1.13;;
43509;SDS011;29105;57.764;40.952;2023-07-16T02:21:09;2.58;;;1.40;;
43509;SDS011;29105;57.764;40.952;2023-07-16T02:23:35;1.63;;;1.27;;
43509;SDS011;29105;57.764;40.952;2023-07-16T02:26:03;2.72;;;1.25;;
43509;SDS011;29105;57.764;40.952;2023-07-16T02:28:28;6.45;;;1.40;;
43509;SDS011;29105;57.764;40.952;2023-07-16T02:30:54;4.35;;;1.35;;
43509;SDS011;29105;57.764;40.952;2023-07-16T02:33:20;4.30;;;1.42;;
43509;SDS011;29105;57.764;40.952;2023-07-16T02:35:46;5.72;;;1.80;;
43509;SDS011;29105;57.764;40.952;2023-07-16T02:38:14;1.83;;;1.27;;
43509;SDS011;29105;57.764;40.952;2023-07-16T02:40:46;4.55;;;1.40;;
43509;SDS011;29105;57.764;40.952;2023-07-16T02:43:13;3.40;;;1.83;;
43509;SDS011;29105;57.764;40.952;2023-07-16T02:45:39;4.22;;;1.83;;
43509;SDS011;29105;57.764;40.952;2023-07-16T02:48:05;2.80;;;1.60;;
43509;SDS011;29105;57.764;40.952;2023-07-16T02:50:34;5.07;;;2.58;;
43509;SDS011;29105;57.764;40.952;2023-07-16T02:53:01;3.13;;;1.40;;
43509;SDS011;29105;57.764;40.952;2023-07-16T02:55:28;2.22;;;1.50;;
43509;SDS011;29105;57.764;40.952;2023-07-16T02:57:54;4.30;;;0.98;;
43509;SDS011;29105;57.764;40.952;2023-07-16T03:00:20;3.88;;;1.50;;
43509;SDS011;29105;57.764;40.952;2023-07-16T03:02:45;2.38;;;1.27;;
43509;SDS011;29105;57.764;40.952;2023-07-16T03:05:11;5.00;;;1.38;;
43509;SDS011;29105;57.764;40.952;2023-07-16T03:07:37;2.55;;;1.27;;
43509;SDS011;29105;57.764;40.952;2023-07-16T03:10:03;4.20;;;2.58;;
43509;SDS011;29105;57.764;40.952;2023-07-16T03:12:29;2.08;;;1.25;;
43509;SDS011;29105;57.764;40.952;2023-07-16T03:14:54;4.03;;;1.73;;
43509;SDS011;29105;57.764;40.952;2023-07-16T03:17:20;4.03;;;1.40;;
43509;SDS011;29105;57.764;40.952;2023-07-16T03:19:47;11.82;;;1.83;;
43509;SDS011;29105;57.764;40.952;2023-07-16T03:22:15;4.45;;;1.50;;
43509;SDS011;29105;57.764;40.952;2023-07-16T03:24:41;12.15;;;1.88;;
43509;SDS011;29105;57.764;40.952;2023-07-16T03:27:07;8.32;;;1.67;;
43509;SDS011;29105;57.764;40.952;2023-07-16T03:29:33;1.92;;;1.10;;
43509;SDS011;29105;57.764;40.952;2023-07-16T03:31:58;3.55;;;1.38;;
43509;SDS011;29105;57.764;40.952;2023-07-16T03:34:24;2.47;;;1.02;;
43509;SDS011;29105;57.764;40.952;2023-07-16T03:36:50;5.60;;;1.08;;
43509;SDS011;29105;57.764;40.952;2023-07-16T03:39:16;6.20;;;1.27;;
43509;SDS011;29105;57.764;40.952;2023-07-16T03:41:41;1.80;;;0.98;;
43509;SDS011;29105;57.764;40.952;2023-07-16T03:44:07;2.65;;;1.40;;
43509;SDS011;29105;57.764;40.952;2023-07-16T03:46:33;9.32;;;2.13;;
43509;SDS011;29105;57.764;40.952;2023-07-16T03:48:58;4.25;;;1.30;;
43509;SDS011;29105;57.764;40.952;2023-07-16T03:51:24;1.40;;;0.93;;
43509;SDS011;29105;57.764;40.952;2023-07-16T03:53:50;5.72;;;2.13;;
43509;SDS011;29105;57.764;40.952;2023-07-16T03:56:15;4.55;;;1.13;;
43509;SDS011;29105;57.764;40.952;2023-07-16T03:58:41;4.18;;;1.85;;
43509;SDS011;29105;57.764;40.952;2023-07-16T04:01:07;0.93;;;0.55;;
43509;SDS011;29105;57.764;40.952;2023-07-16T04:03:32;5.47;;;0.90;;
43509;SDS011;29105;57.764;40.952;2023-07-16T04:06:02;0.77;;;0.40;;
43509;SDS011;29105;57.764;40.952;2023-07-16T04:08:29;2.37;;;0.80;;
43509;SDS011;29105;57.764;40.952;2023-07-16T04:10:54;2.30;;;0.70;;
43509;SDS011;29105;57.764;40.952;2023-07-16T04:13:20;3.58;;;0.50;;
43509;SDS011;29105;57.764;40.952;2023-07-16T04:15:46;2.45;;;0.98;;
43509;SDS011;29105;57.764;40.952;2023-07-16T04:18:11;3.45;;;0.60;;
43509;SDS011;29105;57.764;40.952;2023-07-16T04:20:37;5.18;;;1.02;;
43509;SDS011;29105;57.764;40.952;2023-07-16T04:23:02;2.42;;;1.63;;
43509;SDS011;29105;57.764;40.952;2023-07-16T04:25:28;1.02;;;0.60;;
43509;SDS011;29105;57.764;40.952;2023-07-16T04:27:54;4.63;;;1.45;;
43509;SDS011;29105;57.764;40.952;2023-07-16T04:30:19;3.70;;;1.60;;
43509;SDS011;29105;57.764;40.952;2023-07-16T04:32:45;1.52;;;0.90;;
43509;SDS011;29105;57.764;40.952;2023-07-16T04:35:11;3.90;;;0.80;;
43509;SDS011;29105;57.764;40.952;2023-07-16T04:37:36;1.90;;;0.60;;
43509;SDS011;29105;57.764;40.952;2023-07-16T04:40:02;2.72;;;0.93;;
43509;SDS011;29105;57.764;40.952;2023-07-16T04:42:30;4.30;;;0.70;;
43509;SDS011;29105;57.764;40.952;2023-07-16T04:44:55;2.40;;;0.82;;
43509;SDS011;29105;57.764;40.952;2023-07-16T04:47:21;2.17;;;0.63;;
43509;SDS011;29105;57.764;40.952;2023-07-16T04:49:47;2.42;;;1.42;;
43509;SDS011;29105;57.764;40.952;2023-07-16T04:52:12;3.42;;;0.80;;
43509;SDS011;29105;57.764;40.952;2023-07-16T04:54:38;1.75;;;0.73;;
43509;SDS011;29105;57.764;40.952;2023-07-16T04:57:05;1.80;;;0.77;;
43509;SDS011;29105;57.764;40.952;2023-07-16T04:59:32;3.72;;;0.65;;
43509;SDS011;29105;57.764;40.952;2023-07-16T05:01:57;2.80;;;0.60;;
43509;SDS011;29105;57.764;40.952;2023-07-16T05:04:23;5.15;;;0.70;;
43509;SDS011;29105;57.764;40.952;2023-07-16T05:06:49;4.95;;;0.75;;
43509;SDS011;29105;57.764;40.952;2023-07-16T05:09:14;3.05;;;0.70;;
43509;SDS011;29105;57.764;40.952;2023-07-16T05:11:40;8.88;;;1.20;;
43509;SDS011;29105;57.764;40.952;2023-07-16T05:14:06;5.03;;;0.60;;
43509;SDS011;29105;57.764;40.952;2023-07-16T05:16:31;1.85;;;0.65;;
43509;SDS011;29105;57.764;40.952;2023-07-16T05:18:57;3.92;;;0.60;;
43509;SDS011;29105;57.764;40.952;2023-07-16T05:21:23;0.95;;;0.40;;
43509;SDS011;29105;57.764;40.952;2023-07-16T05:23:48;1.70;;;0.50;;
43509;SDS011;29105;57.764;40.952;2023-07-16T05:26:14;1.75;;;0.55;;
43509;SDS011;29105;57.764;40.952;2023-07-16T05:28:40;6.07;;;0.65;;
43509;SDS011;29105;57.764;40.952;2023-07-16T05:31:05;2.92;;;0.47;;
43509;SDS011;29105;57.764;40.952;2023-07-16T05:33:31;3.53;;;0.65;;
43509;SDS011;29105;57.764;40.952;2023-07-16T05:35:57;2.25;;;0.63;;
43509;SDS011;29105;57.764;40.952;2023-07-16T05:38:22;4.55;;;0.75;;
43509;SDS011;29105;57.764;40.952;2023-07-16T05:40:48;4.07;;;0.60;;
43509;SDS011;29105;57.764;40.952;2023-07-16T05:43:14;3.75;;;0.82;;
43509;SDS011;29105;57.764;40.952;2023-07-16T05:45:40;2.88;;;0.60;;
43509;SDS011;29105;57.764;40.952;2023-07-16T05:48:06;2.90;;;0.60;;
43509;SDS011;29105;57.764;40.952;2023-07-16T05:50:31;4.70;;;0.73;;
43509;SDS011;29105;57.764;40.952;2023-07-16T05:52:57;7.82;;;0.70;;
43509;SDS011;29105;57.764;40.952;2023-07-16T05:55:23;4.00;;;0.82;;
43509;SDS011;29105;57.764;40.952;2023-07-16T05:57:51;2.38;;;0.73;;
43509;SDS011;29105;57.764;40.952;2023-07-16T06:00:18;3.03;;;0.60;;
43509;SDS011;29105;57.764;40.952;2023-07-16T06:02:43;4.45;;;0.75;;
43509;SDS011;29105;57.764;40.952;2023-07-16T06:05:09;2.72;;;0.50;;
43509;SDS011;29105;57.764;40.952;2023-07-16T06:07:35;3.72;;;0.95;;
43509;SDS011;29105;57.764;40.952;2023-07-16T06:10:01;4.00;;;0.55;;
43509;SDS011;29105;57.764;40.952;2023-07-16T06:12:29;2.78;;;0.38;;
43509;SDS011;29105;57.764;40.952;2023-07-16T06:14:55;2.08;;;0.70;;
43509;SDS011;29105;57.764;40.952;2023-07-16T06:17:21;2.28;;;0.70;;
43509;SDS011;29105;57.764;40.952;2023-07-16T06:19:46;1.45;;;0.50;;
43509;SDS011;29105;57.764;40.952;2023-07-16T06:22:15;2.70;;;0.93;;
43509;SDS011;29105;57.764;40.952;2023-07-16T06:24:40;2.58;;;0.60;;
43509;SDS011;29105;57.764;40.952;2023-07-16T06:27:06;7.22;;;1.00;;
43509;SDS011;29105;57.764;40.952;2023-07-16T06:29:32;5.85;;;0.50;;
43509;SDS011;29105;57.764;40.952;2023-07-16T06:31:58;1.65;;;0.50;;
43509;SDS011;29105;57.764;40.952;2023-07-16T06:34:24;1.48;;;0.50;;
43509;SDS011;29105;57.764;40.952;2023-07-16T06:36:50;3.00;;;0.55;;
43509;SDS011;29105;57.764;40.952;2023-07-16T06:39:16;1.60;;;0.45;;
43509;SDS011;29105;57.764;40.952;2023-07-16T06:41:41;0.73;;;0.40;;
43509;SDS011;29105;57.764;40.952;2023-07-16T06:44:07;2.13;;;0.40;;
43509;SDS011;29105;57.764;40.952;2023-07-16T06:46:34;1.58;;;0.50;;
43509;SDS011;29105;57.764;40.952;2023-07-16T06:49:00;4.53;;;0.55;;
43509;SDS011;29105;57.764;40.952;2023-07-16T06:51:25;2.47;;;0.82;;
43509;SDS011;29105;57.764;40.952;2023-07-16T06:53:51;3.65;;;0.63;;
43509;SDS011;29105;57.764;40.952;2023-07-16T06:56:17;2.70;;;0.40;;
43509;SDS011;29105;57.764;40.952;2023-07-16T06:58:43;2.20;;;0.60;;
43509;SDS011;29105;57.764;40.952;2023-07-16T07:01:10;5.65;;;0.88;;
43509;SDS011;29105;57.764;40.952;2023-07-16T07:03:36;3.72;;;0.70;;
43509;SDS011;29105;57.764;40.952;2023-07-16T07:06:04;3.95;;;0.80;;
43509;SDS011;29105;57.764;40.952;2023-07-16T07:08:30;5.07;;;0.93;;
43509;SDS011;29105;57.764;40.952;2023-07-16T07:10:56;1.02;;;0.40;;
43509;SDS011;29105;57.764;40.952;2023-07-16T07:13:22;2.22;;;0.93;;
43509;SDS011;29105;57.764;40.952;2023-07-16T07:15:49;28.52;;;5.00;;
43509;SDS011;29105;57.764;40.952;2023-07-16T07:18:14;4.20;;;1.00;;
43509;SDS011;29105;57.764;40.952;2023-07-16T07:20:40;5.25;;;0.90;;
43509;SDS011;29105;57.764;40.952;2023-07-16T07:23:06;3.28;;;0.90;;
43509;SDS011;29105;57.764;40.952;2023-07-16T07:25:34;3.53;;;1.33;;
43509;SDS011;29105;57.764;40.952;2023-07-16T07:28:00;2.83;;;0.75;;
43509;SDS011;29105;57.764;40.952;2023-07-16T07:30:25;4.95;;;0.82;;
43509;SDS011;29105;57.764;40.952;2023-07-16T07:32:51;1.88;;;0.60;;
43509;SDS011;29105;57.764;40.952;2023-07-16T07:35:17;2.35;;;0.70;;
43509;SDS011;29105;57.764;40.952;2023-07-16T07:37:42;3.53;;;1.20;;
43509;SDS011;29105;57.764;40.952;2023-07-16T07:40:08;4.82;;;0.75;;
43509;SDS011;29105;57.764;40.952;2023-07-16T07:42:34;3.15;;;0.77;;
43509;SDS011;29105;57.764;40.952;2023-07-16T07:45:00;2.60;;;1.02;;
43509;SDS011;29105;57.764;40.952;2023-07-16T07:47:25;0.85;;;0.40;;
43509;SDS011;29105;57.764;40.952;2023-07-16T07:49:54;5.00;;;0.88;;
43509;SDS011;29105;57.764;40.952;2023-07-16T07:52:20;2.35;;;0.65;;
43509;SDS011;29105;57.764;40.952;2023-07-16T07:54:45;5.88;;;1.13;;
43509;SDS011;29105;57.764;40.952;2023-07-16T07:57:11;2.83;;;0.90;;
43509;SDS011;29105;57.764;40.952;2023-07-16T07:59:37;1.38;;;0.75;;
43509;SDS011;29105;57.764;40.952;2023-07-16T08:02:03;1.27;;;0.88;;
43509;SDS011;29105;57.764;40.952;2023-07-16T08:04:28;3.45;;;0.80;;
43509;SDS011;29105;57.764;40.952;2023-07-16T08:06:55;2.10;;;1.13;;
43509;SDS011;29105;57.764;40.952;2023-07-16T08:09:21;1.77;;;1.05;;
43509;SDS011;29105;57.764;40.952;2023-07-16T08:11:47;7.00;;;0.77;;
43509;SDS011;29105;57.764;40.952;2023-07-16T08:14:12;3.58;;;0.95;;
43509;SDS011;29105;57.764;40.952;2023-07-16T08:16:39;2.92;;;1.02;;
43509;SDS011;29105;57.764;40.952;2023-07-16T08:19:04;3.58;;;0.95;;
43509;SDS011;29105;57.764;40.952;2023-07-16T08:21:30;3.15;;;1.00;;
43509;SDS011;29105;57.764;40.952;2023-07-16T08:23:57;2.92;;;1.75;;
43509;SDS011;29105;57.764;40.952;2023-07-16T08:26:23;2.13;;;0.90;;
43509;SDS011;29105;57.764;40.952;2023-07-16T08:28:48;6.45;;;1.10;;
43509;SDS011;29105;57.764;40.952;2023-07-16T08:31:14;5.15;;;1.13;;
43509;SDS011;29105;57.764;40.952;2023-07-16T08:33:40;1.50;;;0.45;;
43509;SDS011;29105;57.764;40.952;2023-07-16T08:36:05;3.63;;;0.73;;
43509;SDS011;29105;57.764;40.952;2023-07-16T08:38:31;4.60;;;1.08;;
43509;SDS011;29105;57.764;40.952;2023-07-16T08:40:57;2.63;;;0.73;;
43509;SDS011;29105;57.764;40.952;2023-07-16T08:43:22;4.07;;;0.95;;
43509;SDS011;29105;57.764;40.952;2023-07-16T08:45:49;7.10;;;0.80;;
43509;SDS011;29105;57.764;40.952;2023-07-16T08:48:16;2.65;;;0.95;;
43509;SDS011;29105;57.764;40.952;2023-07-16T08:50:46;2.90;;;0.80;;
43509;SDS011;29105;57.764;40.952;2023-07-16T08:53:14;6.97;;;0.93;;
43509;SDS011;29105;57.764;40.952;2023-07-16T08:55:40;2.00;;;0.60;;
43509;SDS011;29105;57.764;40.952;2023-07-16T08:58:06;5.03;;;0.95;;
43509;SDS011;29105;57.764;40.952;2023-07-16T09:00:32;6.80;;;0.88;;
43509;SDS011;29105;57.764;40.952;2023-07-16T09:02:59;2.15;;;0.88;;
43509;SDS011;29105;57.764;40.952;2023-07-16T09:05:25;4.50;;;0.80;;
43509;SDS011;29105;57.764;40.952;2023-07-16T09:07:50;2.95;;;1.00;;
43509;SDS011;29105;57.764;40.952;2023-07-16T09:10:16;2.83;;;0.88;;
43509;SDS011;29105;57.764;40.952;2023-07-16T09:12:45;4.53;;;0.82;;
43509;SDS011;29105;57.764;40.952;2023-07-16T09:15:13;2.50;;;0.82;;
43509;SDS011;29105;57.764;40.952;2023-07-16T09:17:46;5.20;;;1.00;;
43509;SDS011;29105;57.764;40.952;2023-07-16T09:20:14;3.63;;;0.70;;
43509;SDS011;29105;57.764;40.952;2023-07-16T09:22:41;4.15;;;0.63;;
43509;SDS011;29105;57.764;40.952;2023-07-16T09:25:06;2.38;;;0.57;;
43509;SDS011;29105;57.764;40.952;2023-07-16T09:27:32;3.88;;;0.98;;
43509;SDS011;29105;57.764;40.952;2023-07-16T09:29:59;3.05;;;1.02;;
43509;SDS011;29105;57.764;40.952;2023-07-16T09:32:35;1.48;;;0.75;;
43509;SDS011;29105;57.764;40.952;2023-07-16T09:35:06;3.42;;;1.08;;
43509;SDS011;29105;57.764;40.952;2023-07-16T09:37:36;3.83;;;0.80;;
43509;SDS011;29105;57.764;40.952;2023-07-16T09:40:03;1.90;;;0.80;;
43509;SDS011;29105;57.764;40.952;2023-07-16T09:42:36;3.85;;;1.00;;
43509;SDS011;29105;57.764;40.952;2023-07-16T09:45:06;5.80;;;1.10;;
43509;SDS011;29105;57.764;40.952;2023-07-16T09:47:35;6.10;;;0.70;;
43509;SDS011;29105;57.764;40.952;2023-07-16T09:50:02;1.52;;;0.70;;
43509;SDS011;29105;57.764;40.952;2023-07-16T09:52:29;2.40;;;0.45;;
43509;SDS011;29105;57.764;40.952;2023-07-16T09:54:55;2.03;;;0.60;;
43509;SDS011;29105;57.764;40.952;2023-07-16T09:57:25;4.95;;;0.70;;
43509;SDS011;29105;57.764;40.952;2023-07-16T09:59:54;3.63;;;1.27;;
43509;SDS011;29105;57.764;40.952;2023-07-16T10:02:21;4.40;;;0.93;;
43509;SDS011;29105;57.764;40.952;2023-07-16T10:04:48;6.55;;;0.98;;
43509;SDS011;29105;57.764;40.952;2023-07-16T10:07:20;1.83;;;0.60;;
43509;SDS011;29105;57.764;40.952;2023-07-16T10:09:53;3.78;;;0.50;;
43509;SDS011;29105;57.764;40.952;2023-07-16T10:12:21;3.65;;;0.70;;
43509;SDS011;29105;57.764;40.952;2023-07-16T10:14:48;6.28;;;0.65;;
43509;SDS011;29105;57.764;40.952;2023-07-16T10:17:25;5.57;;;0.75;;
43509;SDS011;29105;57.764;40.952;2023-07-16T10:19:54;2.90;;;0.55;;
43509;SDS011;29105;57.764;40.952;2023-07-16T10:22:30;3.75;;;0.63;;
43509;SDS011;29105;57.764;40.952;2023-07-16T10:25:03;2.45;;;0.77;;
43509;SDS011;29105;57.764;40.952;2023-07-16T10:27:49;0.95;;;0.50;;
43509;SDS011;29105;57.764;40.952;2023-07-16T10:30:15;1.23;;;0.75;;
43509;SDS011;29105;57.764;40.952;2023-07-16T10:32:41;3.70;;;0.70;;
43509;SDS011;29105;57.764;40.952;2023-07-16T10:35:07;5.40;;;1.40;;
43509;SDS011;29105;57.764;40.952;2023-07-16T10:37:34;3.15;;;0.60;;
43509;SDS011;29105;57.764;40.952;2023-07-16T10:40:01;1.73;;;0.70;;
43509;SDS011;29105;57.764;40.952;2023-07-16T10:42:31;5.35;;;0.90;;
43509;SDS011;29105;57.764;40.952;2023-07-16T10:44:58;7.47;;;1.10;;
43509;SDS011;29105;57.764;40.952;2023-07-16T10:47:30;2.65;;;0.95;;
43509;SDS011;29105;57.764;40.952;2023-07-16T10:49:57;2.10;;;0.60;;
43509;SDS011;29105;57.764;40.952;2023-07-16T10:52:23;2.83;;;0.98;;
43509;SDS011;29105;57.764;40.952;2023-07-16T10:54:49;0.93;;;0.75;;
43509;SDS011;29105;57.764;40.952;2023-07-16T10:57:21;2.92;;;0.70;;
43509;SDS011;29105;57.764;40.952;2023-07-16T10:59:48;4.10;;;0.77;;
43509;SDS011;29105;57.764;40.952;2023-07-16T11:02:16;3.75;;;0.50;;
43509;SDS011;29105;57.764;40.952;2023-07-16T11:04:42;3.78;;;0.80;;
43509;SDS011;29105;57.764;40.952;2023-07-16T11:07:10;2.35;;;0.50;;
43509;SDS011;29105;57.764;40.952;2023-07-16T11:09:43;1.08;;;0.60;;
43509;SDS011;29105;57.764;40.952;2023-07-16T11:12:13;1.40;;;0.52;;
43509;SDS011;29105;57.764;40.952;2023-07-16T11:14:43;2.30;;;0.70;;
43509;SDS011;29105;57.764;40.952;2023-07-16T11:17:20;2.42;;;0.60;;
43509;SDS011;29105;57.764;40.952;2023-07-16T11:19:48;2.00;;;0.80;;
43509;SDS011;29105;57.764;40.952;2023-07-16T11:22:16;4.90;;;0.70;;
43509;SDS011;29105;57.764;40.952;2023-07-16T11:24:49;5.18;;;0.70;;
43509;SDS011;29105;57.764;40.952;2023-07-16T11:27:16;2.75;;;0.73;;
43509;SDS011;29105;57.764;40.952;2023-07-16T11:29:50;4.55;;;0.65;;
43509;SDS011;29105;57.764;40.952;2023-07-16T11:32:33;2.05;;;0.70;;
43509;SDS011;29105;57.764;40.952;2023-07-16T11:35:01;2.97;;;0.70;;
43509;SDS011;29105;57.764;40.952;2023-07-16T11:37:32;3.40;;;0.60;;
43509;SDS011;29105;57.764;40.952;2023-07-16T11:39:59;2.95;;;0.40;;
43509;SDS011;29105;57.764;40.952;2023-07-16T11:42:37;0.73;;;0.47;;
43509;SDS011;29105;57.764;40.952;2023-07-16T11:45:04;2.35;;;0.55;;
43509;SDS011;29105;57.764;40.952;2023-07-16T11:47:33;3.28;;;0.77;;
43509;SDS011;29105;57.764;40.952;2023-07-16T11:49:59;3.65;;;0.68;;
43509;SDS011;29105;57.764;40.952;2023-07-16T11:52:26;2.53;;;0.90;;
43509;SDS011;29105;57.764;40.952;2023-07-16T11:54:52;2.22;;;0.52;;
43509;SDS011;29105;57.764;40.952;2023-07-16T11:57:19;3.92;;;0.80;;
43509;SDS011;29105;57.764;40.952;2023-07-16T11:59:49;5.53;;;0.88;;
43509;SDS011;29105;57.764;40.952;2023-07-16T12:02:15;1.85;;;0.70;;
43509;SDS011;29105;57.764;40.952;2023-07-16T12:04:41;4.60;;;0.70;;
43509;SDS011;29105;57.764;40.952;2023-07-16T12:07:07;3.13;;;0.98;;
43509;SDS011;29105;57.764;40.952;2023-07-16T12:09:33;2.97;;;0.63;;
43509;SDS011;29105;57.764;40.952;2023-07-16T12:11:59;1.42;;;0.70;;
43509;SDS011;29105;57.764;40.952;2023-07-16T12:14:25;4.90;;;1.30;;
43509;SDS011;29105;57.764;40.952;2023-07-16T12:16:51;6.00;;;1.38;;
43509;SDS011;29105;57.764;40.952;2023-07-16T12:19:16;4.03;;;0.65;;
43509;SDS011;29105;57.764;40.952;2023-07-16T12:21:42;1.58;;;0.50;;
43509;SDS011;29105;57.764;40.952;2023-07-16T12:24:08;1.27;;;0.50;;
43509;SDS011;29105;57.764;40.952;2023-07-16T12:26:33;3.95;;;0.68;;
43509;SDS011;29105;57.764;40.952;2023-07-16T12:29:00;2.15;;;0.80;;
43509;SDS011;29105;57.764;40.952;2023-07-16T12:31:28;2.30;;;0.50;;
43509;SDS011;29105;57.764;40.952;2023-07-16T12:33:57;3.83;;;0.63;;
43509;SDS011;29105;57.764;40.952;2023-07-16T12:36:23;4.15;;;0.50;;
43509;SDS011;29105;57.764;40.952;2023-07-16T12:38:48;1.20;;;0.60;;
43509;SDS011;29105;57.764;40.952;2023-07-16T12:41:14;2.45;;;0.47;;
43509;SDS011;29105;57.764;40.952;2023-07-16T12:43:40;1.55;;;0.57;;
43509;SDS011;29105;57.764;40.952;2023-07-16T12:46:06;4.32;;;0.57;;
43509;SDS011;29105;57.764;40.952;2023-07-16T12:48:34;1.60;;;0.60;;
43509;SDS011;29105;57.764;40.952;2023-07-16T12:51:00;2.55;;;0.60;;
43509;SDS011;29105;57.764;40.952;2023-07-16T12:53:26;3.83;;;0.60;;
43509;SDS011;29105;57.764;40.952;2023-07-16T12:55:52;1.80;;;0.55;;
43509;SDS011;29105;57.764;40.952;2023-07-16T12:58:18;5.35;;;0.70;;
43509;SDS011;29105;57.764;40.952;2023-07-16T13:00:44;2.78;;;0.63;;
43509;SDS011;29105;57.764;40.952;2023-07-16T13:03:10;7.10;;;0.55;;
43509;SDS011;29105;57.764;40.952;2023-07-16T13:05:37;4.13;;;0.82;;
43509;SDS011;29105;57.764;40.952;2023-07-16T13:08:04;5.07;;;0.65;;
43509;SDS011;29105;57.764;40.952;2023-07-16T13:10:30;4.13;;;0.65;;
43509;SDS011;29105;57.764;40.952;2023-07-16T13:12:55;2.60;;;0.60;;
43509;SDS011;29105;57.764;40.952;2023-07-16T13:15:21;2.58;;;1.05;;
43509;SDS011;29105;57.764;40.952;2023-07-16T13:17:47;1.65;;;0.50;;
43509;SDS011;29105;57.764;40.952;2023-07-16T13:20:16;2.88;;;0.45;;
43509;SDS011;29105;57.764;40.952;2023-07-16T13:22:43;2.53;;;0.80;;
43509;SDS011;29105;57.764;40.952;2023-07-16T13:25:09;3.35;;;1.20;;
43509;SDS011;29105;57.764;40.952;2023-07-16T13:27:34;3.97;;;1.35;;
43509;SDS011;29105;57.764;40.952;2023-07-16T13:30:00;3.63;;;1.27;;
43509;SDS011;29105;57.764;40.952;2023-07-16T13:32:26;1.45;;;0.77;;
43509;SDS011;29105;57.764;40.952;2023-07-16T13:34:51;2.50;;;0.80;;
43509;SDS011;29105;57.764;40.952;2023-07-16T13:37:19;22.73;;;2.53;;
43509;SDS011;29105;57.764;40.952;2023-07-16T13:39:44;21.48;;;2.08;;
43509;SDS011;29105;57.764;40.952;2023-07-16T13:42:10;6.68;;;1.08;;
43509;SDS011;29105;57.764;40.952;2023-07-16T13:44:36;4.20;;;1.60;;
43509;SDS011;29105;57.764;40.952;2023-07-16T13:47:02;6.28;;;1.45;;
43509;SDS011;29105;57.764;40.952;2023-07-16T13:49:28;4.57;;;1.95;;
43509;SDS011;29105;57.764;40.952;2023-07-16T13:51:53;7.88;;;1.83;;
43509;SDS011;29105;57.764;40.952;2023-07-16T13:54:19;5.85;;;3.85;;
43509;SDS011;29105;57.764;40.952;2023-07-16T13:56:45;6.25;;;2.65;;
43509;SDS011;29105;57.764;40.952;2023-07-16T13:59:10;5.30;;;2.20;;
43509;SDS011;29105;57.764;40.952;2023-07-16T14:01:39;5.60;;;3.00;;
43509;SDS011;29105;57.764;40.952;2023-07-16T14:04:05;3.78;;;2.50;;
43509;SDS011;29105;57.764;40.952;2023-07-16T14:06:31;6.65;;;2.65;;
43509;SDS011;29105;57.764;40.952;2023-07-16T14:08:59;4.72;;;2.28;;
43509;SDS011;29105;57.764;40.952;2023-07-16T14:11:25;14.63;;;10.57;;
43509;SDS011;29105;57.764;40.952;2023-07-16T14:13:51;4.18;;;2.83;;
43509;SDS011;29105;57.764;40.952;2023-07-16T14:16:19;4.35;;;3.10;;
43509;SDS011;29105;57.764;40.952;2023-07-16T14:18:50;3.72;;;2.75;;
43509;SDS011;29105;57.764;40.952;2023-07-16T14:21:17;5.50;;;3.72;;
43509;SDS011;29105;57.764;40.952;2023-07-16T14:23:43;5.68;;;3.70;;
43509;SDS011;29105;57.764;40.952;2023-07-16T14:26:09;6.70;;;3.78;;
43509;SDS011;29105;57.764;40.952;2023-07-16T14:28:35;5.85;;;4.10;;
43509;SDS011;29105;57.764;40.952;2023-07-16T14:31:00;8.98;;;5.07;;
43509;SDS011;29105;57.764;40.952;2023-07-16T14:33:26;9.02;;;4.32;;
43509;SDS011;29105;57.764;40.952;2023-07-16T14:35:53;3.13;;;2.25;;